Waterville, Minnesota
Current Conditions -  °F | °C
As of 8:14 AM on Wednesday 28 Jan 2015 (Local Time) from KACQ Reporting Station
Haze Haze  
Wind Chill: 19°   Ceiling: 300
Heat Index: 30°   Visibility: 1.2mi
Dew Point: 28°   Wind: 15mph
Humidity: 93%   Direction: 140°SE
Pressure: 29.97"   Gusts: 24mph
Location:  44.22°N, 93.57°W
Report Text: KACQ 281414Z AUTO 14013G21KT 1 1/4SM BR OVC003 M01/M02 A2997 RMK AO2
Loading
Personal Weather Stations






























Interactive Weather Map New forecast layout! Learn more

10-Day Weather Forecast

Advertisements
Track Severe Weather on mobile